createdAt,value
2022-11-05T00:02:32.290Z,100.00
2022-11-05T00:05:18.463Z,100.00
2022-11-05T00:08:09.015Z,100.00
2022-11-05T00:10:37.967Z,100.00
2022-11-05T00:13:24.994Z,100.00
2022-11-05T00:16:11.542Z,100.00
2022-11-05T00:18:39.260Z,100.00
2022-11-05T00:21:27.260Z,100.00
2022-11-05T00:24:13.560Z,100.00
2022-11-05T00:26:41.728Z,100.00
2022-11-05T00:29:09.335Z,100.00
2022-11-05T00:31:36.915Z,100.00
2022-11-05T00:34:04.523Z,100.00
2022-11-05T00:36:33.407Z,100.00
2022-11-05T00:39:01.606Z,100.00
2022-11-05T00:41:29.588Z,100.00
2022-11-05T00:44:16.796Z,100.00
2022-11-05T00:46:44.646Z,100.00
2022-11-05T00:49:30.113Z,100.00
2022-11-05T00:52:16.140Z,100.00
2022-11-05T00:54:45.116Z,100.00
2022-11-05T00:57:12.773Z,100.00
2022-11-05T00:59:41.420Z,100.00
2022-11-05T01:02:09.165Z,100.00
2022-11-05T01:04:36.962Z,100.00
2022-11-05T01:07:04.816Z,100.00
2022-11-05T01:09:33.083Z,100.00
2022-11-05T01:12:00.817Z,100.00
2022-11-05T01:14:28.482Z,100.00
2022-11-05T01:16:56.015Z,100.00
2022-11-05T01:19:23.619Z,100.00
2022-11-05T01:21:51.257Z,100.00
2022-11-05T01:24:19.072Z,100.00
2022-11-05T01:26:47.381Z,100.00
2022-11-05T01:29:15.300Z,100.00
2022-11-05T01:31:44.210Z,100.00
2022-11-05T01:34:11.804Z,100.00
2022-11-05T01:36:39.348Z,100.00
2022-11-05T01:39:06.893Z,100.00
2022-11-05T01:41:34.488Z,100.00
2022-11-05T01:44:03.439Z,100.00
2022-11-05T01:46:40.341Z,100.00
2022-11-05T01:49:15.508Z,100.00
2022-11-05T01:51:43.074Z,100.00
2022-11-05T01:54:12.657Z,100.00
2022-11-05T01:56:42.844Z,100.00
2022-11-05T01:59:12.570Z,100.00
2022-11-05T02:01:40.204Z,100.00
2022-11-05T02:04:10.354Z,100.00
2022-11-05T02:06:46.184Z,100.00
2022-11-05T02:09:28.596Z,100.00
2022-11-05T02:11:56.372Z,100.00
2022-11-05T02:14:24.054Z,100.00
2022-11-05T02:17:15.171Z,100.00
2022-11-05T02:20:20.445Z,100.00
2022-11-05T02:22:47.959Z,100.00
2022-11-05T02:25:30.524Z,100.00
2022-11-05T02:28:04.035Z,100.00
2022-11-05T02:30:38.479Z,100.00
2022-11-05T02:33:47.819Z,100.00
2022-11-05T02:36:32.561Z,100.00
2022-11-05T02:39:17.564Z,100.00
2022-11-05T02:41:51.125Z,100.00
2022-11-05T02:44:41.946Z,100.00
2022-11-05T02:47:24.307Z,100.00
2022-11-05T02:50:14.187Z,100.00
2022-11-05T02:53:04.180Z,100.00
2022-11-05T02:55:42.627Z,100.00
2022-11-05T02:58:10.343Z,100.00
2022-11-05T03:00:51.830Z,100.00
2022-11-05T03:03:25.398Z,100.00
2022-11-05T03:05:52.964Z,100.00
2022-11-05T03:08:41.366Z,100.00
2022-11-05T03:11:15.890Z,100.00
2022-11-05T03:14:07.251Z,100.00
2022-11-05T03:16:44.584Z,100.00
2022-11-05T03:19:30.652Z,100.00
2022-11-05T03:22:02.864Z,100.00
2022-11-05T03:24:35.648Z,100.00
2022-11-05T03:27:06.768Z,100.00
2022-11-05T03:29:41.708Z,100.00
2022-11-05T03:32:09.407Z,100.00
2022-11-05T03:34:43.152Z,100.00
2022-11-05T03:37:11.019Z,100.00
2022-11-05T03:39:46.110Z,100.00
2022-11-05T03:42:15.952Z,100.00
2022-11-05T03:44:46.495Z,100.00
2022-11-05T03:47:15.835Z,100.00
2022-11-05T03:49:56.782Z,100.00
2022-11-05T03:52:26.528Z,100.00
2022-11-05T03:54:54.189Z,100.00
2022-11-05T03:57:27.028Z,100.00
2022-11-05T03:59:54.831Z,100.00
2022-11-05T04:02:23.653Z,100.00
2022-11-05T04:04:52.489Z,100.00
2022-11-05T04:07:38.715Z,100.00
2022-11-05T04:10:28.178Z,100.00
2022-11-05T04:13:14.528Z,100.00
2022-11-05T04:16:01.405Z,100.00
2022-11-05T04:18:29.307Z,100.00
2022-11-05T04:21:18.047Z,100.00
2022-11-05T04:24:04.014Z,100.00
2022-11-05T04:26:31.732Z,100.00
2022-11-05T04:29:17.922Z,100.00
2022-11-05T04:31:47.372Z,100.00
2022-11-05T04:34:16.435Z,100.00
2022-11-05T04:36:44.064Z,100.00
2022-11-05T04:39:11.812Z,100.00
2022-11-05T04:41:39.562Z,100.00
2022-11-05T04:44:08.489Z,100.00
2022-11-05T04:46:36.179Z,100.00
2022-11-05T04:49:03.791Z,100.00
2022-11-05T04:51:33.288Z,100.00
2022-11-05T04:54:01.072Z,100.00
2022-11-05T04:56:31.433Z,100.00
2022-11-05T04:58:59.066Z,100.00
2022-11-05T05:01:26.711Z,100.00
2022-11-05T05:03:54.470Z,100.00
2022-11-05T05:06:22.774Z,100.00
2022-11-05T05:08:51.075Z,100.00
2022-11-05T05:11:20.664Z,100.00
2022-11-05T05:13:48.538Z,100.00
2022-11-05T05:16:23.131Z,100.00
2022-11-05T05:18:50.942Z,100.00
2022-11-05T05:21:39.469Z,100.00
2022-11-05T05:24:11.871Z,100.00
2022-11-05T05:26:49.125Z,100.00
2022-11-05T05:29:17.298Z,100.00
2022-11-05T05:31:45.036Z,100.00
2022-11-05T05:34:13.900Z,100.00
2022-11-05T05:36:41.572Z,100.00
2022-11-05T05:39:11.125Z,100.00
2022-11-05T05:41:38.893Z,100.00
2022-11-05T05:44:06.873Z,100.00
2022-11-05T05:46:34.571Z,100.00
2022-11-05T05:49:04.521Z,100.00
2022-11-05T05:51:35.504Z,100.00
2022-11-05T05:54:03.563Z,100.00
2022-11-05T05:56:31.250Z,100.00
2022-11-05T05:58:58.883Z,100.00
2022-11-05T06:01:26.856Z,100.00
2022-11-05T06:03:54.741Z,100.00
2022-11-05T06:06:22.866Z,100.00
2022-11-05T06:08:50.647Z,100.00
2022-11-05T06:11:18.487Z,100.00
2022-11-05T06:13:46.167Z,100.00
2022-11-05T06:16:15.118Z,100.00
2022-11-05T06:18:42.835Z,100.00
2022-11-05T06:21:12.121Z,100.00
2022-11-05T06:23:40.717Z,100.00
2022-11-05T06:26:12.615Z,100.00
2022-11-05T06:28:42.244Z,100.00
2022-11-05T06:31:11.009Z,100.00
2022-11-05T06:33:39.033Z,100.00
2022-11-05T06:36:07.655Z,100.00
2022-11-05T06:38:36.356Z,100.00
2022-11-05T06:41:09.863Z,100.00
2022-11-05T06:43:38.334Z,100.00
2022-11-05T06:46:06.005Z,100.00
2022-11-05T06:48:35.546Z,100.00
2022-11-05T06:51:03.861Z,100.00
2022-11-05T06:53:31.652Z,100.00
2022-11-05T06:56:03.134Z,100.00
2022-11-05T06:58:31.403Z,100.00
2022-11-05T07:01:08.172Z,100.00
2022-11-05T07:03:39.167Z,100.00
2022-11-05T07:06:07.305Z,100.00
2022-11-05T07:08:35.496Z,100.00
2022-11-05T07:11:03.828Z,100.00
2022-11-05T07:13:32.160Z,100.00
2022-11-05T07:16:01.481Z,100.00
2022-11-05T07:18:29.342Z,100.00
2022-11-05T07:20:57.039Z,99.66
2022-11-05T07:23:25.677Z,96.57
2022-11-05T07:25:53.349Z,96.73
2022-11-05T07:28:21.602Z,95.31
2022-11-05T07:30:49.568Z,94.41
2022-11-05T07:33:17.116Z,93.58
2022-11-05T07:35:44.932Z,94.94
2022-11-05T07:38:12.840Z,94.31
2022-11-05T07:40:40.917Z,93.59
2022-11-05T07:43:09.387Z,92.90
2022-11-05T07:45:37.506Z,90.14
2022-11-05T07:48:06.534Z,89.17
2022-11-05T07:50:36.283Z,90.20
2022-11-05T07:53:05.809Z,90.26
2022-11-05T07:55:33.912Z,89.29
2022-11-05T07:58:07.742Z,88.50
2022-11-05T08:00:35.797Z,88.52
2022-11-05T08:03:08.888Z,89.04
2022-11-05T08:05:44.476Z,89.24
2022-11-05T08:08:17.537Z,88.54
2022-11-05T08:10:45.311Z,88.11
2022-11-05T08:13:13.556Z,88.60
2022-11-05T08:15:42.413Z,88.54
2022-11-05T08:18:15.467Z,88.05
2022-11-05T08:20:43.639Z,86.77
2022-11-05T08:23:12.676Z,87.30
2022-11-05T08:25:42.595Z,86.88
2022-11-05T08:28:11.711Z,85.95
2022-11-05T08:30:57.960Z,86.09
2022-11-05T08:33:25.825Z,86.51
2022-11-05T08:35:53.564Z,85.19
2022-11-05T08:38:21.383Z,85.81
2022-11-05T08:40:57.603Z,86.26
2022-11-05T08:43:25.625Z,85.60
2022-11-05T08:45:54.245Z,85.83
2022-11-05T08:48:21.970Z,87.19
2022-11-05T08:50:49.920Z,88.51
2022-11-05T08:53:17.693Z,88.47
2022-11-05T08:55:47.719Z,88.72
2022-11-05T08:58:17.172Z,88.24
2022-11-05T09:00:46.399Z,89.89
2022-11-05T09:03:14.553Z,89.65
2022-11-05T09:05:43.136Z,89.15
2022-11-05T09:08:19.752Z,88.50
2022-11-05T09:10:47.697Z,88.45
2022-11-05T09:13:19.732Z,87.97
2022-11-05T09:15:49.292Z,86.37
2022-11-05T09:18:17.242Z,86.53
2022-11-05T09:20:45.128Z,86.44
2022-11-05T09:23:15.030Z,86.84
2022-11-05T09:25:43.534Z,85.85
2022-11-05T09:28:22.503Z,84.00
2022-11-05T09:30:51.482Z,82.14
2022-11-05T09:33:24.305Z,82.98
2022-11-05T09:35:52.911Z,82.29
2022-11-05T09:38:20.478Z,82.38
2022-11-05T09:41:12.678Z,79.69
2022-11-05T09:43:44.436Z,80.77
2022-11-05T09:46:32.119Z,79.24
2022-11-05T09:49:04.436Z,80.17
2022-11-05T09:51:32.270Z,79.92
2022-11-05T09:54:03.021Z,78.16
2022-11-05T09:56:32.296Z,77.26
2022-11-05T09:59:17.245Z,77.47
2022-11-05T10:01:45.307Z,78.08
2022-11-05T10:04:21.001Z,78.25
2022-11-05T10:06:58.654Z,78.24
2022-11-05T10:09:33.234Z,79.64
2022-11-05T10:12:11.874Z,78.39
2022-11-05T10:14:51.386Z,78.71
2022-11-05T10:17:25.269Z,78.32
2022-11-05T10:20:24.915Z,75.69
2022-11-05T10:22:56.188Z,75.83
2022-11-05T10:25:26.960Z,76.22
2022-11-05T10:27:55.287Z,75.15
2022-11-05T10:30:23.651Z,74.97
2022-11-05T10:32:56.792Z,75.50
2022-11-05T10:35:24.743Z,75.54
2022-11-05T10:37:53.759Z,75.90
2022-11-05T10:40:39.549Z,76.53
2022-11-05T10:43:12.023Z,77.40
2022-11-05T10:45:53.039Z,76.79
2022-11-05T10:48:20.466Z,76.64
2022-11-05T10:51:08.197Z,77.02
2022-11-05T10:53:39.708Z,77.45
2022-11-05T10:56:27.787Z,76.54
2022-11-05T10:58:57.559Z,76.97
2022-11-05T11:01:26.716Z,77.43
2022-11-05T11:04:13.261Z,75.48
2022-11-05T11:06:45.201Z,75.16
2022-11-05T11:09:29.259Z,74.79
2022-11-05T11:12:00.225Z,75.39
2022-11-05T11:14:28.117Z,74.84
2022-11-05T11:16:58.773Z,74.70
2022-11-05T11:19:33.295Z,74.09
2022-11-05T11:22:05.631Z,74.33
2022-11-05T11:24:40.547Z,73.17
2022-11-05T11:27:14.377Z,70.77
2022-11-05T11:29:55.271Z,69.71
2022-11-05T11:32:23.250Z,69.25
2022-11-05T11:34:53.060Z,70.60
2022-11-05T11:37:30.590Z,72.07
2022-11-05T11:40:02.538Z,70.93
2022-11-05T11:42:34.197Z,70.04
2022-11-05T11:45:07.946Z,70.48
2022-11-05T11:47:36.422Z,71.10
2022-11-05T11:50:05.066Z,72.75
2022-11-05T11:52:37.042Z,74.44
2022-11-05T11:55:18.692Z,75.21
2022-11-05T11:57:55.650Z,75.94
2022-11-05T12:00:24.065Z,76.91
2022-11-05T12:03:18.033Z,77.66
2022-11-05T12:05:48.873Z,78.01
2022-11-05T12:09:06.780Z,78.14
2022-11-05T12:11:45.216Z,78.76
2022-11-05T12:14:33.093Z,79.03
2022-11-05T12:17:34.390Z,79.11
2022-11-05T12:20:10.211Z,79.53
2022-11-05T12:23:19.295Z,79.17
2022-11-05T12:26:07.961Z,79.38
2022-11-05T12:29:12.058Z,79.47
2022-11-05T12:31:43.910Z,79.90
2022-11-05T12:34:34.326Z,79.60
2022-11-05T12:37:07.759Z,79.89
2022-11-05T12:39:45.475Z,79.28
2022-11-05T12:42:31.392Z,76.22
2022-11-05T12:45:36.140Z,76.06
2022-11-05T12:48:41.417Z,75.20
2022-11-05T12:51:31.124Z,76.32
2022-11-05T12:54:22.583Z,76.58
2022-11-05T12:57:19.658Z,76.68
2022-11-05T12:59:55.015Z,77.00
2022-11-05T13:02:45.852Z,77.00
2022-11-05T13:05:39.239Z,76.62
2022-11-05T13:08:14.501Z,77.11
2022-11-05T13:10:49.689Z,77.52
2022-11-05T13:13:39.139Z,77.51
2022-11-05T13:16:29.931Z,77.73
2022-11-05T13:19:17.595Z,77.24
2022-11-05T13:21:52.606Z,77.79
2022-11-05T13:24:36.331Z,78.77
2022-11-05T13:27:25.380Z,78.94
2022-11-05T13:30:02.792Z,79.30
2022-11-05T13:32:34.864Z,80.14
2022-11-05T13:35:08.778Z,81.66
2022-11-05T13:38:00.004Z,82.97
2022-11-05T13:40:56.138Z,84.21
2022-11-05T13:43:35.904Z,85.64
2022-11-05T13:46:23.021Z,86.42
2022-11-05T13:48:56.767Z,87.38
2022-11-05T13:51:48.218Z,88.39
2022-11-05T13:54:39.847Z,88.97
2022-11-05T13:57:31.889Z,89.77
2022-11-05T14:00:19.561Z,89.89
2022-11-05T14:02:49.533Z,91.16
2022-11-05T14:05:28.439Z,91.26
2022-11-05T14:07:58.163Z,92.39
2022-11-05T14:10:38.206Z,93.10
2022-11-05T14:13:33.554Z,93.72
2022-11-05T14:16:05.069Z,93.90
2022-11-05T14:18:44.411Z,94.21
2022-11-05T14:21:27.495Z,95.11
2022-11-05T14:24:00.427Z,95.38
2022-11-05T14:26:30.143Z,97.44
2022-11-05T14:29:03.831Z,98.12
2022-11-05T14:31:54.335Z,98.47
2022-11-05T14:34:44.939Z,98.88
2022-11-05T14:37:24.321Z,98.73
2022-11-05T14:39:56.582Z,98.82
2022-11-05T14:42:31.335Z,98.63
2022-11-05T14:44:59.034Z,99.30
2022-11-05T14:47:29.142Z,99.88
2022-11-05T14:50:18.065Z,99.53
2022-11-05T14:52:57.359Z,100.00
2022-11-05T14:55:31.533Z,100.00
2022-11-05T14:57:59.193Z,100.00
2022-11-05T15:00:29.761Z,100.00
2022-11-05T15:03:00.016Z,100.00
2022-11-05T15:05:50.153Z,100.00
2022-11-05T15:08:24.897Z,100.00
2022-11-05T15:10:53.724Z,100.00
2022-11-05T15:13:30.434Z,100.00
2022-11-05T15:15:59.338Z,99.99
2022-11-05T15:18:37.104Z,100.00
2022-11-05T15:21:08.032Z,100.00
2022-11-05T15:23:42.144Z,99.86
2022-11-05T15:26:21.249Z,99.96
2022-11-05T15:28:55.410Z,99.80
2022-11-05T15:31:43.765Z,98.86
2022-11-05T15:34:39.937Z,98.37
2022-11-05T15:37:11.769Z,98.32
2022-11-05T15:39:44.871Z,98.24
2022-11-05T15:42:18.616Z,97.83
2022-11-05T15:44:53.480Z,97.28
2022-11-05T15:47:31.117Z,97.17
2022-11-05T15:50:07.500Z,97.32
2022-11-05T15:52:42.988Z,97.04
2022-11-05T15:55:13.299Z,97.03
2022-11-05T15:57:50.647Z,96.79
2022-11-05T16:00:29.567Z,96.93
2022-11-05T16:03:04.809Z,97.48
2022-11-05T16:05:36.660Z,97.28
2022-11-05T16:08:05.651Z,96.68
2022-11-05T16:10:35.848Z,96.86
2022-11-05T16:13:28.403Z,96.94
2022-11-05T16:15:57.857Z,96.42
2022-11-05T16:18:30.587Z,96.78
2022-11-05T16:21:17.201Z,95.77
2022-11-05T16:24:01.262Z,95.47
2022-11-05T16:27:02.177Z,95.00
2022-11-05T16:29:27.534Z,94.99
2022-11-05T16:31:56.020Z,94.44
2022-11-05T16:34:31.756Z,93.92
2022-11-05T16:36:59.695Z,93.83
2022-11-05T16:39:28.202Z,93.65
2022-11-05T16:41:56.066Z,93.68
2022-11-05T16:44:24.821Z,92.79
2022-11-05T16:46:52.809Z,92.99
2022-11-05T16:49:20.658Z,92.48
2022-11-05T16:51:48.415Z,93.03
2022-11-05T16:54:17.013Z,93.29
2022-11-05T16:56:47.090Z,93.35
2022-11-05T16:59:15.612Z,93.72
2022-11-05T17:01:44.683Z,93.34
2022-11-05T17:04:14.351Z,92.81
2022-11-05T17:06:45.182Z,93.14
2022-11-05T17:09:13.101Z,93.20
2022-11-05T17:11:41.076Z,93.36
2022-11-05T17:14:11.441Z,93.11
2022-11-05T17:16:40.238Z,92.50
2022-11-05T17:19:10.396Z,92.44
2022-11-05T17:21:40.455Z,92.51
2022-11-05T17:24:09.768Z,92.54
2022-11-05T17:26:38.619Z,92.38
2022-11-05T17:29:07.175Z,91.56
2022-11-05T17:31:35.355Z,91.80
2022-11-05T17:34:03.847Z,91.63
2022-11-05T17:36:34.493Z,91.47
2022-11-05T17:39:04.628Z,91.79
2022-11-05T17:41:33.693Z,92.09
2022-11-05T17:44:01.818Z,91.75
2022-11-05T17:46:29.837Z,91.78
2022-11-05T17:48:57.591Z,92.00
2022-11-05T17:51:25.603Z,92.06
2022-11-05T17:53:53.626Z,92.24
2022-11-05T17:56:33.442Z,92.21
2022-11-05T17:59:02.723Z,92.58
2022-11-05T18:01:33.584Z,93.12
2022-11-05T18:04:08.249Z,93.04
2022-11-05T18:06:38.691Z,92.92
2022-11-05T18:09:07.274Z,93.41
2022-11-05T18:11:36.373Z,93.65
2022-11-05T18:14:04.926Z,93.49
2022-11-05T18:16:33.120Z,92.91
2022-11-05T18:19:01.188Z,92.96
2022-11-05T18:21:30.189Z,92.45
2022-11-05T18:23:58.102Z,92.68
2022-11-05T18:26:25.923Z,93.33
2022-11-05T18:28:53.795Z,93.17
2022-11-05T18:31:21.766Z,93.09
2022-11-05T18:33:49.881Z,93.37
2022-11-05T18:36:28.177Z,93.22
2022-11-05T18:38:57.839Z,94.03
2022-11-05T18:41:25.488Z,94.06
2022-11-05T18:43:53.151Z,94.18
2022-11-05T18:46:51.327Z,94.44
2022-11-05T18:49:10.098Z,94.26
2022-11-05T18:51:37.780Z,94.72
2022-11-05T18:54:05.505Z,94.55
2022-11-05T18:56:33.384Z,94.96
2022-11-05T18:59:30.118Z,94.49
2022-11-05T19:01:50.965Z,94.34
2022-11-05T19:04:19.281Z,94.47
2022-11-05T19:06:48.796Z,94.88
2022-11-05T19:09:17.272Z,95.23
2022-11-05T19:11:45.345Z,94.25
2022-11-05T19:14:13.250Z,94.52
2022-11-05T19:16:41.180Z,94.93
2022-11-05T19:19:10.244Z,94.73
2022-11-05T19:21:39.786Z,94.32
2022-11-05T19:24:08.484Z,94.54
2022-11-05T19:26:36.259Z,94.44
2022-11-05T19:29:04.787Z,94.28
2022-11-05T19:31:34.369Z,94.29
2022-11-05T19:34:03.531Z,93.91
2022-11-05T19:36:33.954Z,94.64
2022-11-05T19:39:04.617Z,94.38
2022-11-05T19:41:33.506Z,94.34
2022-11-05T19:44:02.661Z,94.52
2022-11-05T19:46:31.098Z,94.58
2022-11-05T19:49:00.501Z,93.94
2022-11-05T19:51:29.892Z,94.68
2022-11-05T19:54:00.189Z,94.39
2022-11-05T19:56:29.995Z,94.99
2022-11-05T19:58:57.883Z,94.85
2022-11-05T20:01:26.901Z,94.75
2022-11-05T20:03:55.630Z,94.95
2022-11-05T20:06:34.927Z,94.69
2022-11-05T20:11:56.507Z,94.31
2022-11-05T20:14:25.037Z,93.40
2022-11-05T20:16:52.948Z,92.95
2022-11-05T20:19:21.625Z,93.04
2022-11-05T20:21:50.136Z,93.13
2022-11-05T20:24:24.074Z,92.82
2022-11-05T20:26:54.680Z,92.98
2022-11-05T20:29:22.429Z,92.31
2022-11-05T20:31:50.444Z,92.42
2022-11-05T20:34:17.943Z,93.12
2022-11-05T20:36:45.699Z,92.62
2022-11-05T20:39:13.361Z,92.69
2022-11-05T20:41:40.963Z,92.87
2022-11-05T20:44:08.575Z,92.79
2022-11-05T20:46:36.240Z,91.93
2022-11-05T20:49:03.793Z,91.45
2022-11-05T20:51:31.390Z,90.66
2022-11-05T20:53:59.959Z,89.84
2022-11-05T20:56:29.713Z,89.77
2022-11-05T20:58:58.599Z,89.50
2022-11-05T21:01:31.145Z,89.58
2022-11-05T21:04:00.170Z,89.13
2022-11-05T21:06:28.003Z,89.29
2022-11-05T21:08:55.711Z,89.01
2022-11-05T21:11:50.319Z,89.60
2022-11-05T21:14:18.138Z,89.50
2022-11-05T21:16:45.738Z,89.63
2022-11-05T21:19:15.272Z,89.89
2022-11-05T21:21:42.775Z,89.35
2022-11-05T21:24:10.348Z,89.00
2022-11-05T21:26:37.892Z,89.99
2022-11-05T21:29:05.768Z,89.35
2022-11-05T21:31:38.572Z,89.02
2022-11-05T21:34:06.525Z,89.43
2022-11-05T21:36:34.281Z,89.36
2022-11-05T21:39:02.030Z,89.21
2022-11-05T21:41:31.146Z,88.78
2022-11-05T21:43:58.868Z,88.93
2022-11-05T21:46:26.551Z,89.04
2022-11-05T21:48:54.115Z,89.00
2022-11-05T21:51:40.558Z,89.06
2022-11-05T21:54:28.703Z,88.93
2022-11-05T21:57:15.202Z,89.56
2022-11-05T21:59:49.267Z,89.60
2022-11-05T22:02:20.868Z,89.54
2022-11-05T22:04:53.338Z,89.33
2022-11-05T22:07:23.188Z,89.68
2022-11-05T22:09:50.754Z,89.55
2022-11-05T22:12:20.375Z,89.71
2022-11-05T22:14:48.628Z,89.80
2022-11-05T22:17:16.684Z,89.83
2022-11-05T22:19:45.035Z,89.82
2022-11-05T22:22:12.660Z,89.84
2022-11-05T22:24:40.366Z,90.54
2022-11-05T22:27:12.530Z,89.83
2022-11-05T22:29:40.122Z,90.20
2022-11-05T22:32:07.820Z,90.70
2022-11-05T22:34:35.815Z,90.66
2022-11-05T22:37:03.630Z,90.47
2022-11-05T22:39:31.610Z,91.06
2022-11-05T22:42:02.965Z,91.34
2022-11-05T22:44:33.271Z,91.31
2022-11-05T22:47:00.945Z,91.69
2022-11-05T22:49:28.978Z,91.74
2022-11-05T22:51:56.756Z,91.05
2022-11-05T22:54:24.327Z,91.75
2022-11-05T22:56:53.877Z,91.34
2022-11-05T22:59:21.628Z,91.31
2022-11-05T23:01:49.548Z,91.38
2022-11-05T23:04:17.924Z,91.17
2022-11-05T23:07:04.405Z,91.17
2022-11-05T23:09:51.829Z,90.87
2022-11-05T23:12:21.985Z,91.66
2022-11-05T23:14:49.830Z,91.21
2022-11-05T23:17:36.314Z,91.05
2022-11-05T23:20:29.930Z,90.80
2022-11-05T23:23:16.077Z,90.97
2022-11-05T23:25:43.644Z,91.13
2022-11-05T23:28:11.593Z,90.68
2022-11-05T23:31:01.627Z,90.78
2022-11-05T23:33:29.471Z,90.39
2022-11-05T23:36:15.506Z,91.15
2022-11-05T23:38:43.082Z,90.65
2022-11-05T23:41:29.043Z,90.81
2022-11-05T23:44:15.166Z,91.42
2022-11-05T23:47:01.373Z,91.04
2022-11-05T23:49:29.075Z,91.30
2022-11-05T23:51:56.669Z,91.06
2022-11-05T23:54:25.278Z,91.46
2022-11-05T23:56:53.675Z,91.44
2022-11-05T23:59:21.283Z,91.23
